sensor_id;sensor_type;location;lat;lon;timestamp;temperature;humidity
1091;DHT22;534;48.704;9.122;2024-02-26T05:02:11;8.40;72.90
1091;DHT22;534;48.704;9.122;2024-02-26T05:04:38;8.50;73.20
1091;DHT22;534;48.704;9.122;2024-02-26T05:07:05;8.40;72.80
1091;DHT22;534;48.704;9.122;2024-02-26T05:09:31;8.50;72.30
1091;DHT22;534;48.704;9.122;2024-02-26T05:11:58;8.60;72.50
1091;DHT22;534;48.704;9.122;2024-02-26T05:14:25;8.80;71.50
1091;DHT22;534;48.704;9.122;2024-02-26T05:16:52;8.90;71.60
1091;DHT22;534;48.704;9.122;2024-02-26T05:19:20;9.00;70.30
1091;DHT22;534;48.704;9.122;2024-02-26T05:21:46;9.20;70.60
1091;DHT22;534;48.704;9.122;2024-02-26T05:24:14;9.40;71.50
1091;DHT22;534;48.704;9.122;2024-02-26T05:26:42;9.40;71.40
1091;DHT22;534;48.704;9.122;2024-02-26T05:29:09;9.50;71.40
1091;DHT22;534;48.704;9.122;2024-02-26T05:31:36;9.60;72.50
1091;DHT22;534;48.704;9.122;2024-02-26T05:34:02;9.60;73.30
1091;DHT22;534;48.704;9.122;2024-02-26T05:36:30;9.60;74.20
1091;DHT22;534;48.704;9.122;2024-02-26T05:38:58;9.60;74.10
1091;DHT22;534;48.704;9.122;2024-02-26T05:41:25;9.60;73.90
1091;DHT22;534;48.704;9.122;2024-02-26T05:43:52;9.70;73.70
1091;DHT22;534;48.704;9.122;2024-02-26T05:46:19;9.70;74.00
1091;DHT22;534;48.704;9.122;2024-02-26T05:48:49;9.70;74.20
1091;DHT22;534;48.704;9.122;2024-02-26T05:51:15;9.70;74.30
1091;DHT22;534;48.704;9.122;2024-02-26T05:53:43;9.70;74.90
1091;DHT22;534;48.704;9.122;2024-02-26T05:56:10;9.70;75.30
1091;DHT22;534;48.704;9.122;2024-02-26T05:58:37;9.70;75.60
1091;DHT22;534;48.704;9.122;2024-02-26T06:01:04;9.70;75.40
1091;DHT22;534;48.704;9.122;2024-02-26T06:03:30;9.70;75.20
1091;DHT22;534;48.704;9.122;2024-02-26T06:05:57;9.60;75.20
1091;DHT22;534;48.704;9.122;2024-02-26T06:08:24;9.60;75.40
1091;DHT22;534;48.704;9.122;2024-02-26T06:10:52;9.60;75.40
1091;DHT22;534;48.704;9.122;2024-02-26T06:13:19;9.60;75.20
1091;DHT22;534;48.704;9.122;2024-02-26T06:15:46;9.60;75.30
1091;DHT22;534;48.704;9.122;2024-02-26T06:18:13;9.50;75.40
1091;DHT22;534;48.704;9.122;2024-02-26T06:20:39;9.50;75.50
1091;DHT22;534;48.704;9.122;2024-02-26T06:23:06;9.50;75.60
1091;DHT22;534;48.704;9.122;2024-02-26T06:25:33;9.50;75.50
1091;DHT22;534;48.704;9.122;2024-02-26T06:28:01;9.50;75.70
1091;DHT22;534;48.704;9.122;2024-02-26T06:30:28;9.50;75.70
1091;DHT22;534;48.704;9.122;2024-02-26T06:32:54;9.50;75.70
1091;DHT22;534;48.704;9.122;2024-02-26T06:35:21;9.40;75.80
1091;DHT22;534;48.704;9.122;2024-02-26T06:37:47;9.50;75.80
1091;DHT22;534;48.704;9.122;2024-02-26T06:40:16;9.50;75.80
1091;DHT22;534;48.704;9.122;2024-02-26T06:42:42;9.40;76.00
1091;DHT22;534;48.704;9.122;2024-02-26T06:45:11;9.40;75.70
1091;DHT22;534;48.704;9.122;2024-02-26T06:47:37;9.50;75.60
1091;DHT22;534;48.704;9.122;2024-02-26T06:50:04;9.50;75.60
1091;DHT22;534;48.704;9.122;2024-02-26T06:52:31;9.50;75.50
1091;DHT22;534;48.704;9.122;2024-02-26T06:54:58;9.60;75.60
1091;DHT22;534;48.704;9.122;2024-02-26T06:57:25;9.60;75.60
1091;DHT22;534;48.704;9.122;2024-02-26T06:59:51;9.70;75.30
1091;DHT22;534;48.704;9.122;2024-02-26T07:02:19;9.70;75.00
1091;DHT22;534;48.704;9.122;2024-02-26T07:04:46;9.80;75.00
1091;DHT22;534;48.704;9.122;2024-02-26T07:07:13;9.80;74.70
1091;DHT22;534;48.704;9.122;2024-02-26T07:09:42;9.80;74.70
1091;DHT22;534;48.704;9.122;2024-02-26T07:12:09;9.90;74.00
1091;DHT22;534;48.704;9.122;2024-02-26T07:14:35;9.90;74.10
1091;DHT22;534;48.704;9.122;2024-02-26T07:17:03;9.90;74.30
1091;DHT22;534;48.704;9.122;2024-02-26T07:19:31;9.90;74.20
1091;DHT22;534;48.704;9.122;2024-02-26T07:21:58;9.60;76.20
1091;DHT22;534;48.704;9.122;2024-02-26T07:24:26;9.30;77.20
1091;DHT22;534;48.704;9.122;2024-02-26T07:26:53;9.20;78.30
1091;DHT22;534;48.704;9.122;2024-02-26T07:29:20;9.10;78.90
1091;DHT22;534;48.704;9.122;2024-02-26T07:31:47;8.80;80.00
1091;DHT22;534;48.704;9.122;2024-02-26T07:34:14;8.70;80.00
1091;DHT22;534;48.704;9.122;2024-02-26T07:36:42;8.70;79.70
1091;DHT22;534;48.704;9.122;2024-02-26T07:39:08;9.00;78.90
1091;DHT22;534;48.704;9.122;2024-02-26T07:41:35;9.20;78.60
1091;DHT22;534;48.704;9.122;2024-02-26T07:44:04;9.30;78.10
1091;DHT22;534;48.704;9.122;2024-02-26T07:46:31;9.40;77.40
1091;DHT22;534;48.704;9.122;2024-02-26T07:48:57;9.60;77.30
1091;DHT22;534;48.704;9.122;2024-02-26T07:51:24;9.70;76.90
1091;DHT22;534;48.704;9.122;2024-02-26T07:53:52;9.80;76.70
1091;DHT22;534;48.704;9.122;2024-02-26T07:56:19;9.70;76.00
1091;DHT22;534;48.704;9.122;2024-02-26T07:58:45;9.60;76.50
1091;DHT22;534;48.704;9.122;2024-02-26T08:01:13;9.60;77.00
1091;DHT22;534;48.704;9.122;2024-02-26T08:03:39;9.60;77.30
1091;DHT22;534;48.704;9.122;2024-02-26T08:06:08;9.50;77.20
1091;DHT22;534;48.704;9.122;2024-02-26T08:08:34;9.30;77.20
1091;DHT22;534;48.704;9.122;2024-02-26T08:11:03;9.20;77.30
1091;DHT22;534;48.704;9.122;2024-02-26T08:13:29;9.10;77.20
1091;DHT22;534;48.704;9.122;2024-02-26T08:15:56;9.10;78.00
1091;DHT22;534;48.704;9.122;2024-02-26T08:18:24;9.40;77.40
1091;DHT22;534;48.704;9.122;2024-02-26T08:20:50;9.50;77.60
1091;DHT22;534;48.704;9.122;2024-02-26T08:23:17;9.40;78.60
1091;DHT22;534;48.704;9.122;2024-02-26T08:25:44;9.40;78.80
1091;DHT22;534;48.704;9.122;2024-02-26T08:28:12;9.40;78.50
1091;DHT22;534;48.704;9.122;2024-02-26T08:30:39;9.30;78.20
1091;DHT22;534;48.704;9.122;2024-02-26T08:33:06;9.30;78.20
1091;DHT22;534;48.704;9.122;2024-02-26T08:35:32;9.30;77.90
1091;DHT22;534;48.704;9.122;2024-02-26T08:37:59;9.30;78.10
1091;DHT22;534;48.704;9.122;2024-02-26T08:40:26;9.30;77.60
1091;DHT22;534;48.704;9.122;2024-02-26T08:42:52;9.40;77.90
1091;DHT22;534;48.704;9.122;2024-02-26T08:45:20;9.50;76.00
1091;DHT22;534;48.704;9.122;2024-02-26T08:47:47;9.50;75.20
1091;DHT22;534;48.704;9.122;2024-02-26T08:50:14;9.40;74.90
1091;DHT22;534;48.704;9.122;2024-02-26T08:52:41;9.60;73.90
1091;DHT22;534;48.704;9.122;2024-02-26T08:55:08;9.60;72.80
1091;DHT22;534;48.704;9.122;2024-02-26T08:57:35;9.80;73.20
1091;DHT22;534;48.704;9.122;2024-02-26T09:00:01;9.80;71.80
1091;DHT22;534;48.704;9.122;2024-02-26T09:02:29;9.90;71.90
1091;DHT22;534;48.704;9.122;2024-02-26T09:04:56;10.10;71.80
1091;DHT22;534;48.704;9.122;2024-02-26T09:07:23;10.30;71.30
1091;DHT22;534;48.704;9.122;2024-02-26T09:09:49;10.50;71.00
1091;DHT22;534;48.704;9.122;2024-02-26T09:12:16;10.60;70.00
1091;DHT22;534;48.704;9.122;2024-02-26T09:14:43;10.60;69.50
1091;DHT22;534;48.704;9.122;2024-02-26T09:17:09;10.80;69.20
1091;DHT22;534;48.704;9.122;2024-02-26T09:19:38;11.00;68.50
1091;DHT22;534;48.704;9.122;2024-02-26T09:22:04;11.20;68.00
1091;DHT22;534;48.704;9.122;2024-02-26T09:24:31;11.20;67.80
1091;DHT22;534;48.704;9.122;2024-02-26T09:26:58;11.40;67.70
1091;DHT22;534;48.704;9.122;2024-02-26T09:29:24;11.40;66.70
1091;DHT22;534;48.704;9.122;2024-02-26T09:31:52;11.20;66.40
1091;DHT22;534;48.704;9.122;2024-02-26T09:34:18;11.00;67.30
1091;DHT22;534;48.704;9.122;2024-02-26T09:36:46;11.00;67.50
1091;DHT22;534;48.704;9.122;2024-02-26T09:39:13;11.10;67.30
1091;DHT22;534;48.704;9.122;2024-02-26T09:41:45;11.20;66.30
1091;DHT22;534;48.704;9.122;2024-02-26T09:44:14;11.20;66.90
1091;DHT22;534;48.704;9.122;2024-02-26T09:46:42;11.40;67.50
1091;DHT22;534;48.704;9.122;2024-02-26T09:49:09;11.50;66.40
1091;DHT22;534;48.704;9.122;2024-02-26T09:51:38;11.40;67.90
1091;DHT22;534;48.704;9.122;2024-02-26T09:54:07;11.30;67.90
1091;DHT22;534;48.704;9.122;2024-02-26T09:56:36;11.30;68.90
1091;DHT22;534;48.704;9.122;2024-02-26T09:59:06;11.30;68.20
1091;DHT22;534;48.704;9.122;2024-02-26T10:01:36;11.30;68.70
1091;DHT22;534;48.704;9.122;2024-02-26T10:04:04;11.30;68.90
1091;DHT22;534;48.704;9.122;2024-02-26T10:06:31;11.40;68.40
1091;DHT22;534;48.704;9.122;2024-02-26T10:08:58;11.30;68.90
1091;DHT22;534;48.704;9.122;2024-02-26T10:11:27;11.40;69.20
1091;DHT22;534;48.704;9.122;2024-02-26T10:13:54;11.80;68.50
1091;DHT22;534;48.704;9.122;2024-02-26T10:16:21;12.10;66.90
1091;DHT22;534;48.704;9.122;2024-02-26T10:18:48;12.30;66.20
1091;DHT22;534;48.704;9.122;2024-02-26T10:21:16;12.30;66.60
1091;DHT22;534;48.704;9.122;2024-02-26T10:23:43;12.30;65.80
1091;DHT22;534;48.704;9.122;2024-02-26T10:26:10;12.10;65.10
1091;DHT22;534;48.704;9.122;2024-02-26T10:28:39;11.90;62.90
1091;DHT22;534;48.704;9.122;2024-02-26T10:31:06;11.60;64.20
1091;DHT22;534;48.704;9.122;2024-02-26T10:33:33;11.40;64.50
1091;DHT22;534;48.704;9.122;2024-02-26T10:36:01;11.20;65.30
1091;DHT22;534;48.704;9.122;2024-02-26T10:38:28;11.30;66.50
1091;DHT22;534;48.704;9.122;2024-02-26T10:40:55;11.20;67.40
1091;DHT22;534;48.704;9.122;2024-02-26T10:43:22;11.20;67.30
1091;DHT22;534;48.704;9.122;2024-02-26T10:45:50;11.20;67.20
1091;DHT22;534;48.704;9.122;2024-02-26T10:48:17;11.20;68.10
1091;DHT22;534;48.704;9.122;2024-02-26T10:50:44;11.30;69.20
1091;DHT22;534;48.704;9.122;2024-02-26T10:53:16;11.20;70.10
1091;DHT22;534;48.704;9.122;2024-02-26T10:55:48;11.50;69.80
1091;DHT22;534;48.704;9.122;2024-02-26T10:58:16;11.60;69.70
1091;DHT22;534;48.704;9.122;2024-02-26T11:00:43;11.70;68.60
1091;DHT22;534;48.704;9.122;2024-02-26T11:03:12;11.60;68.10
1091;DHT22;534;48.704;9.122;2024-02-26T11:05:41;11.70;67.70
1091;DHT22;534;48.704;9.122;2024-02-26T11:08:09;11.60;67.20
1091;DHT22;534;48.704;9.122;2024-02-26T11:10:37;11.60;67.20
1091;DHT22;534;48.704;9.122;2024-02-26T11:13:05;11.70;66.70
1091;DHT22;534;48.704;9.122;2024-02-26T11:15:32;11.80;66.20
1091;DHT22;534;48.704;9.122;2024-02-26T11:18:00;11.90;65.30
1091;DHT22;534;48.704;9.122;2024-02-26T11:20:29;12.20;65.80
1091;DHT22;534;48.704;9.122;2024-02-26T11:22:56;12.30;64.90
1091;DHT22;534;48.704;9.122;2024-02-26T11:25:22;12.20;64.30
1091;DHT22;534;48.704;9.122;2024-02-26T11:27:53;12.10;64.10
1091;DHT22;534;48.704;9.122;2024-02-26T11:30:23;12.10;63.30
1091;DHT22;534;48.704;9.122;2024-02-26T11:32:50;12.10;63.50
1091;DHT22;534;48.704;9.122;2024-02-26T11:35:17;12.00;64.60
1091;DHT22;534;48.704;9.122;2024-02-26T11:37:53;12.20;63.30
1091;DHT22;534;48.704;9.122;2024-02-26T11:40:20;12.20;63.70
1091;DHT22;534;48.704;9.122;2024-02-26T11:42:47;12.30;63.40
1091;DHT22;534;48.704;9.122;2024-02-26T11:48:25;12.40;63.00
1091;DHT22;534;48.704;9.122;2024-02-26T11:50:53;12.30;63.10
1091;DHT22;534;48.704;9.122;2024-02-26T11:53:22;12.40;63.10
1091;DHT22;534;48.704;9.122;2024-02-26T11:59:00;12.30;62.80
1091;DHT22;534;48.704;9.122;2024-02-26T12:01:40;12.30;62.30
1091;DHT22;534;48.704;9.122;2024-02-26T12:04:09;12.20;63.20
1091;DHT22;534;48.704;9.122;2024-02-26T12:06:45;12.30;63.10
1091;DHT22;534;48.704;9.122;2024-02-26T12:09:30;12.30;62.90
1091;DHT22;534;48.704;9.122;2024-02-26T12:11:57;12.30;62.80
1091;DHT22;534;48.704;9.122;2024-02-26T12:14:25;12.30;63.00
1091;DHT22;534;48.704;9.122;2024-02-26T12:16:52;12.40;62.60
1091;DHT22;534;48.704;9.122;2024-02-26T12:19:19;12.30;62.80
1091;DHT22;534;48.704;9.122;2024-02-26T12:21:51;12.30;62.70
1091;DHT22;534;48.704;9.122;2024-02-26T12:24:20;12.40;62.20
1091;DHT22;534;48.704;9.122;2024-02-26T12:26:46;12.40;62.60
1091;DHT22;534;48.704;9.122;2024-02-26T12:29:13;12.50;62.40
1091;DHT22;534;48.704;9.122;2024-02-26T12:31:40;12.80;62.10
1091;DHT22;534;48.704;9.122;2024-02-26T12:34:08;13.00;61.10
1091;DHT22;534;48.704;9.122;2024-02-26T12:36:36;13.20;60.70
1091;DHT22;534;48.704;9.122;2024-02-26T12:39:03;13.30;60.30
1091;DHT22;534;48.704;9.122;2024-02-26T12:41:32;13.50;59.40
1091;DHT22;534;48.704;9.122;2024-02-26T12:43:59;13.70;58.60
1091;DHT22;534;48.704;9.122;2024-02-26T12:46:26;14.10;58.60
1091;DHT22;534;48.704;9.122;2024-02-26T12:48:55;14.20;58.40
1091;DHT22;534;48.704;9.122;2024-02-26T12:51:23;14.40;56.40
1091;DHT22;534;48.704;9.122;2024-02-26T12:53:51;14.40;57.00
1091;DHT22;534;48.704;9.122;2024-02-26T12:56:18;14.30;57.00
1091;DHT22;534;48.704;9.122;2024-02-26T12:58:47;14.40;57.60
1091;DHT22;534;48.704;9.122;2024-02-26T13:01:16;14.40;56.90
1091;DHT22;534;48.704;9.122;2024-02-26T13:03:44;14.40;56.70
1091;DHT22;534;48.704;9.122;2024-02-26T13:06:10;14.40;57.50
1091;DHT22;534;48.704;9.122;2024-02-26T13:08:37;14.20;57.10
1091;DHT22;534;48.704;9.122;2024-02-26T13:11:04;14.10;57.00
1091;DHT22;534;48.704;9.122;2024-02-26T13:13:31;13.90;58.60
1091;DHT22;534;48.704;9.122;2024-02-26T13:16:03;13.90;58.40
1091;DHT22;534;48.704;9.122;2024-02-26T13:18:32;14.00;58.90
1091;DHT22;534;48.704;9.122;2024-02-26T13:21:09;14.00;58.60
1091;DHT22;534;48.704;9.122;2024-02-26T13:23:36;14.20;59.00
1091;DHT22;534;48.704;9.122;2024-02-26T13:26:03;14.40;58.10
1091;DHT22;534;48.704;9.122;2024-02-26T13:28:30;14.40;57.30
1091;DHT22;534;48.704;9.122;2024-02-26T13:30:57;14.50;57.60
1091;DHT22;534;48.704;9.122;2024-02-26T13:33:27;14.70;57.70
1091;DHT22;534;48.704;9.122;2024-02-26T13:35:54;15.00;56.70
1091;DHT22;534;48.704;9.122;2024-02-26T13:38:22;14.90;56.90
1091;DHT22;534;48.704;9.122;2024-02-26T13:40:49;15.00;56.30
1091;DHT22;534;48.704;9.122;2024-02-26T13:43:16;15.00;56.30
1091;DHT22;534;48.704;9.122;2024-02-26T13:45:43;15.10;56.50
1091;DHT22;534;48.704;9.122;2024-02-26T13:48:10;15.30;55.90
1091;DHT22;534;48.704;9.122;2024-02-26T13:50:39;15.60;55.70
1091;DHT22;534;48.704;9.122;2024-02-26T13:53:06;15.80;54.90
1091;DHT22;534;48.704;9.122;2024-02-26T13:55:32;15.80;55.00
1091;DHT22;534;48.704;9.122;2024-02-26T13:58:00;16.00;54.90
1091;DHT22;534;48.704;9.122;2024-02-26T14:00:28;16.20;54.60
1091;DHT22;534;48.704;9.122;2024-02-26T14:02:55;16.60;54.30
1091;DHT22;534;48.704;9.122;2024-02-26T14:05:22;17.00;53.30
1091;DHT22;534;48.704;9.122;2024-02-26T14:07:49;17.60;52.60
1091;DHT22;534;48.704;9.122;2024-02-26T14:10:16;18.20;50.90
1091;DHT22;534;48.704;9.122;2024-02-26T14:12:43;19.30;49.30
1091;DHT22;534;48.704;9.122;2024-02-26T14:15:10;20.60;47.80
1091;DHT22;534;48.704;9.122;2024-02-26T14:17:37;21.10;46.10
1091;DHT22;534;48.704;9.122;2024-02-26T14:20:04;21.20;45.20
1091;DHT22;534;48.704;9.122;2024-02-26T14:22:33;21.30;45.40
1091;DHT22;534;48.704;9.122;2024-02-26T14:25:01;22.30;43.50
1091;DHT22;534;48.704;9.122;2024-02-26T14:27:28;22.80;42.60
1091;DHT22;534;48.704;9.122;2024-02-26T14:29:55;22.70;42.50
1091;DHT22;534;48.704;9.122;2024-02-26T14:32:21;23.00;41.80
1091;DHT22;534;48.704;9.122;2024-02-26T14:34:48;23.60;41.20
1091;DHT22;534;48.704;9.122;2024-02-26T14:37:15;23.60;40.20
1091;DHT22;534;48.704;9.122;2024-02-26T14:39:41;22.60;41.70
1091;DHT22;534;48.704;9.122;2024-02-26T14:42:09;21.90;42.80
1091;DHT22;534;48.704;9.122;2024-02-26T14:44:36;21.30;43.80
1091;DHT22;534;48.704;9.122;2024-02-26T14:47:03;21.10;44.40
1091;DHT22;534;48.704;9.122;2024-02-26T14:49:29;20.90;44.70
1091;DHT22;534;48.704;9.122;2024-02-26T14:51:57;20.70;45.30
1091;DHT22;534;48.704;9.122;2024-02-26T14:54:23;20.20;45.90
1091;DHT22;534;48.704;9.122;2024-02-26T14:56:50;19.60;46.90
1091;DHT22;534;48.704;9.122;2024-02-26T14:59:18;18.90;48.50
1091;DHT22;534;48.704;9.122;2024-02-26T15:01:44;18.20;49.70
1091;DHT22;534;48.704;9.122;2024-02-26T15:04:11;17.10;51.30
1091;DHT22;534;48.704;9.122;2024-02-26T15:06:38;16.50;52.60
1091;DHT22;534;48.704;9.122;2024-02-26T15:09:05;16.20;53.30
1091;DHT22;534;48.704;9.122;2024-02-26T15:11:31;16.10;54.00
1091;DHT22;534;48.704;9.122;2024-02-26T15:13:58;16.10;54.60
1091;DHT22;534;48.704;9.122;2024-02-26T15:16:26;16.10;54.70
1091;DHT22;534;48.704;9.122;2024-02-26T15:18:52;16.10;54.10
1091;DHT22;534;48.704;9.122;2024-02-26T15:21:19;16.00;55.30
1091;DHT22;534;48.704;9.122;2024-02-26T15:23:46;15.60;54.90
1091;DHT22;534;48.704;9.122;2024-02-26T15:26:14;15.30;55.80
1091;DHT22;534;48.704;9.122;2024-02-26T15:28:41;15.20;56.60
1091;DHT22;534;48.704;9.122;2024-02-26T15:31:07;15.00;57.10
1091;DHT22;534;48.704;9.122;2024-02-26T15:33:35;14.80;57.40
1091;DHT22;534;48.704;9.122;2024-02-26T15:36:03;14.80;57.80
1091;DHT22;534;48.704;9.122;2024-02-26T15:38:29;14.70;58.10
1091;DHT22;534;48.704;9.122;2024-02-26T15:40:56;14.60;58.70
1091;DHT22;534;48.704;9.122;2024-02-26T15:43:23;14.60;59.30
1091;DHT22;534;48.704;9.122;2024-02-26T15:45:49;14.70;59.60
1091;DHT22;534;48.704;9.122;2024-02-26T15:48:16;14.50;59.40
1091;DHT22;534;48.704;9.122;2024-02-26T15:50:44;14.50;59.80
1091;DHT22;534;48.704;9.122;2024-02-26T15:53:10;14.40;59.90
1091;DHT22;534;48.704;9.122;2024-02-26T15:55:37;14.50;59.90
1091;DHT22;534;48.704;9.122;2024-02-26T15:58:08;14.50;59.90
1091;DHT22;534;48.704;9.122;2024-02-26T16:00:39;14.40;59.80
1091;DHT22;534;48.704;9.122;2024-02-26T16:03:06;14.30;60.00
1091;DHT22;534;48.704;9.122;2024-02-26T16:05:32;14.20;60.00
1091;DHT22;534;48.704;9.122;2024-02-26T16:08:05;14.10;60.30
1091;DHT22;534;48.704;9.122;2024-02-26T16:10:32;14.10;60.80
1091;DHT22;534;48.704;9.122;2024-02-26T16:13:00;13.90;60.90
1091;DHT22;534;48.704;9.122;2024-02-26T16:15:28;14.00;61.20
1091;DHT22;534;48.704;9.122;2024-02-26T16:17:55;14.00;61.20
1091;DHT22;534;48.704;9.122;2024-02-26T16:20:24;13.90;61.00
1091;DHT22;534;48.704;9.122;2024-02-26T16:22:54;13.80;61.60
1091;DHT22;534;48.704;9.122;2024-02-26T16:25:22;13.70;61.80
1091;DHT22;534;48.704;9.122;2024-02-26T16:27:48;13.50;62.60
1091;DHT22;534;48.704;9.122;2024-02-26T16:30:15;13.40;62.90
1091;DHT22;534;48.704;9.122;2024-02-26T16:32:42;13.40;63.40
1091;DHT22;534;48.704;9.122;2024-02-26T16:35:09;13.30;63.70
1091;DHT22;534;48.704;9.122;2024-02-26T16:37:37;13.20;64.40
1091;DHT22;534;48.704;9.122;2024-02-26T16:40:04;13.20;64.60
1091;DHT22;534;48.704;9.122;2024-02-26T16:42:35;13.30;64.40
1091;DHT22;534;48.704;9.122;2024-02-26T16:45:02;13.40;64.50
1091;DHT22;534;48.704;9.122;2024-02-26T16:47:29;13.50;64.20
1091;DHT22;534;48.704;9.122;2024-02-26T16:49:56;13.50;64.20
1091;DHT22;534;48.704;9.122;2024-02-26T16:52:23;13.60;64.40
1091;DHT22;534;48.704;9.122;2024-02-26T16:54:51;13.60;64.40
1091;DHT22;534;48.704;9.122;2024-02-26T16:57:17;13.60;64.70
1091;DHT22;534;48.704;9.122;2024-02-26T16:59:46;13.60;64.70
1091;DHT22;534;48.704;9.122;2024-02-26T17:02:13;13.70;64.50
1091;DHT22;534;48.704;9.122;2024-02-26T17:04:39;13.70;64.60
1091;DHT22;534;48.704;9.122;2024-02-26T17:07:06;13.50;65.00
1091;DHT22;534;48.704;9.122;2024-02-26T17:09:33;13.30;66.00
1091;DHT22;534;48.704;9.122;2024-02-26T17:12:00;13.20;66.50
1091;DHT22;534;48.704;9.122;2024-02-26T17:14:26;13.20;66.80
1091;DHT22;534;48.704;9.122;2024-02-26T17:16:58;13.20;66.60
1091;DHT22;534;48.704;9.122;2024-02-26T17:19:25;13.10;66.70
1091;DHT22;534;48.704;9.122;2024-02-26T17:21:52;13.00;67.00
1091;DHT22;534;48.704;9.122;2024-02-26T17:24:19;12.80;66.60
1091;DHT22;534;48.704;9.122;2024-02-26T17:26:45;12.80;66.80
1091;DHT22;534;48.704;9.122;2024-02-26T17:29:12;12.80;66.60
1091;DHT22;534;48.704;9.122;2024-02-26T17:31:40;12.80;66.50
1091;DHT22;534;48.704;9.122;2024-02-26T17:34:10;12.80;65.60
1091;DHT22;534;48.704;9.122;2024-02-26T17:36:37;12.60;66.00
1091;DHT22;534;48.704;9.122;2024-02-26T17:39:04;12.50;65.90
1091;DHT22;534;48.704;9.122;2024-02-26T17:41:31;12.60;65.60
1091;DHT22;534;48.704;9.122;2024-02-26T17:43:58;12.60;65.50
1091;DHT22;534;48.704;9.122;2024-02-26T17:46:25;12.60;65.20
1091;DHT22;534;48.704;9.122;2024-02-26T17:48:51;12.50;65.30
1091;DHT22;534;48.704;9.122;2024-02-26T17:51:19;12.50;65.00
1091;DHT22;534;48.704;9.122;2024-02-26T17:53:46;12.50;64.70
1091;DHT22;534;48.704;9.122;2024-02-26T17:56:12;12.40;65.40
1091;DHT22;534;48.704;9.122;2024-02-26T17:58:40;12.50;65.10
1091;DHT22;534;48.704;9.122;2024-02-26T18:01:07;12.40;65.20
1091;DHT22;534;48.704;9.122;2024-02-26T18:03:34;12.40;64.80
1091;DHT22;534;48.704;9.122;2024-02-26T18:06:01;12.50;64.50
1091;DHT22;534;48.704;9.122;2024-02-26T18:08:29;12.50;64.60
1091;DHT22;534;48.704;9.122;2024-02-26T18:10:56;12.40;64.70
1091;DHT22;534;48.704;9.122;2024-02-26T18:13:23;12.40;64.50
1091;DHT22;534;48.704;9.122;2024-02-26T18:15:49;12.40;64.50
1091;DHT22;534;48.704;9.122;2024-02-26T18:18:16;12.50;64.20
1091;DHT22;534;48.704;9.122;2024-02-26T18:20:43;12.40;63.90
1091;DHT22;534;48.704;9.122;2024-02-26T18:23:09;12.40;64.10
1091;DHT22;534;48.704;9.122;2024-02-26T18:25:37;12.50;63.70
1091;DHT22;534;48.704;9.122;2024-02-26T18:28:04;12.50;63.80
1091;DHT22;534;48.704;9.122;2024-02-26T18:30:30;12.50;63.60
1091;DHT22;534;48.704;9.122;2024-02-26T18:32:57;12.50;63.80
1091;DHT22;534;48.704;9.122;2024-02-26T18:35:24;12.60;63.50
1091;DHT22;534;48.704;9.122;2024-02-26T18:37:50;12.60;63.40
1091;DHT22;534;48.704;9.122;2024-02-26T18:40:18;12.60;63.50
1091;DHT22;534;48.704;9.122;2024-02-26T18:42:46;12.50;63.70
1091;DHT22;534;48.704;9.122;2024-02-26T18:45:12;12.50;63.90
1091;DHT22;534;48.704;9.122;2024-02-26T18:47:39;12.40;64.20
1091;DHT22;534;48.704;9.122;2024-02-26T18:50:07;12.50;64.40
1091;DHT22;534;48.704;9.122;2024-02-26T18:52:33;12.50;64.30
1091;DHT22;534;48.704;9.122;2024-02-26T18:55:00;12.30;64.40
1091;DHT22;534;48.704;9.122;2024-02-26T18:57:27;12.30;64.60
1091;DHT22;534;48.704;9.122;2024-02-26T18:59:55;12.20;64.70
1091;DHT22;534;48.704;9.122;2024-02-26T19:02:22;12.20;64.80
1091;DHT22;534;48.704;9.122;2024-02-26T19:04:49;12.30;64.70
1091;DHT22;534;48.704;9.122;2024-02-26T19:07:16;12.30;64.30
1091;DHT22;534;48.704;9.122;2024-02-26T19:09:43;12.50;64.20
1091;DHT22;534;48.704;9.122;2024-02-26T19:12:10;12.60;64.00
1091;DHT22;534;48.704;9.122;2024-02-26T19:14:37;12.70;63.90
1091;DHT22;534;48.704;9.122;2024-02-26T19:17:06;12.80;63.70
1091;DHT22;534;48.704;9.122;2024-02-26T19:19:32;12.80;63.60
1091;DHT22;534;48.704;9.122;2024-02-26T19:22:01;12.90;63.30
1091;DHT22;534;48.704;9.122;2024-02-26T19:24:30;12.90;63.30
1091;DHT22;534;48.704;9.122;2024-02-26T19:26:56;12.90;63.30
1091;DHT22;534;48.704;9.122;2024-02-26T19:29:23;12.90;63.00
1091;DHT22;534;48.704;9.122;2024-02-26T19:31:50;12.90;63.10
1091;DHT22;534;48.704;9.122;2024-02-26T19:34:18;12.90;63.00
1091;DHT22;534;48.704;9.122;2024-02-26T19:36:45;12.70;62.80
1091;DHT22;534;48.704;9.122;2024-02-26T19:39:11;12.60;63.20
1091;DHT22;534;48.704;9.122;2024-02-26T19:41:38;12.50;63.50
1091;DHT22;534;48.704;9.122;2024-02-26T19:44:05;12.40;63.60
1091;DHT22;534;48.704;9.122;2024-02-26T19:46:32;12.50;64.20
1091;DHT22;534;48.704;9.122;2024-02-26T19:48:59;12.40;63.90
1091;DHT22;534;48.704;9.122;2024-02-26T19:51:27;12.40;63.80
1091;DHT22;534;48.704;9.122;2024-02-26T19:53:54;12.40;64.30
1091;DHT22;534;48.704;9.122;2024-02-26T19:56:21;12.20;64.50
1091;DHT22;534;48.704;9.122;2024-02-26T19:58:49;12.10;64.80
1091;DHT22;534;48.704;9.122;2024-02-26T20:01:16;12.00;65.00
1091;DHT22;534;48.704;9.122;2024-02-26T20:03:42;12.10;64.90
1091;DHT22;534;48.704;9.122;2024-02-26T20:06:11;12.00;65.30
1091;DHT22;534;48.704;9.122;2024-02-26T20:08:39;12.00;65.10
1091;DHT22;534;48.704;9.122;2024-02-26T20:11:06;12.10;65.60
1091;DHT22;534;48.704;9.122;2024-02-26T20:13:33;12.20;65.20
1091;DHT22;534;48.704;9.122;2024-02-26T20:15:59;12.30;65.00
1091;DHT22;534;48.704;9.122;2024-02-26T20:18:26;12.40;64.70
1091;DHT22;534;48.704;9.122;2024-02-26T20:20:52;12.40;64.60
1091;DHT22;534;48.704;9.122;2024-02-26T20:23:19;12.30;64.70
1091;DHT22;534;48.704;9.122;2024-02-26T20:25:47;12.40;64.50
1091;DHT22;534;48.704;9.122;2024-02-26T20:28:14;12.40;64.40
1091;DHT22;534;48.704;9.122;2024-02-26T20:30:42;12.50;64.40
1091;DHT22;534;48.704;9.122;2024-02-26T20:33:09;12.50;64.30
1091;DHT22;534;48.704;9.122;2024-02-26T20:35:35;12.60;64.10
1091;DHT22;534;48.704;9.122;2024-02-26T20:38:02;12.60;64.10
1091;DHT22;534;48.704;9.122;2024-02-26T20:40:29;12.60;63.80
1091;DHT22;534;48.704;9.122;2024-02-26T20:42:57;12.60;64.10
1091;DHT22;534;48.704;9.122;2024-02-26T20:45:23;12.50;64.40
1091;DHT22;534;48.704;9.122;2024-02-26T20:47:51;12.40;64.40
1091;DHT22;534;48.704;9.122;2024-02-26T20:50:18;12.30;64.80
1091;DHT22;534;48.704;9.122;2024-02-26T20:52:45;12.30;65.00
1091;DHT22;534;48.704;9.122;2024-02-26T20:55:12;12.30;64.80
1091;DHT22;534;48.704;9.122;2024-02-26T20:57:40;12.30;64.70
1091;DHT22;534;48.704;9.122;2024-02-26T21:00:09;12.20;64.40
1091;DHT22;534;48.704;9.122;2024-02-26T21:02:36;12.20;64.90
1091;DHT22;534;48.704;9.122;2024-02-26T21:05:03;12.10;65.10
1091;DHT22;534;48.704;9.122;2024-02-26T21:07:29;11.90;66.30
1091;DHT22;534;48.704;9.122;2024-02-26T21:09:56;11.80;66.80
1091;DHT22;534;48.704;9.122;2024-02-26T21:12:24;11.70;68.00
1091;DHT22;534;48.704;9.122;2024-02-26T21:14:51;11.50;68.40
1091;DHT22;534;48.704;9.122;2024-02-26T21:17:20;11.40;68.90
1091;DHT22;534;48.704;9.122;2024-02-26T21:19:47;11.20;69.40
1091;DHT22;534;48.704;9.122;2024-02-26T21:22:13;11.10;70.20
1091;DHT22;534;48.704;9.122;2024-02-26T21:24:40;11.00;70.90
1091;DHT22;534;48.704;9.122;2024-02-26T21:27:06;10.90;71.60
1091;DHT22;534;48.704;9.122;2024-02-26T21:29:35;10.80;72.40
